createdAt,value
2016-09-22T00:00:50.974Z,0
2016-09-22T00:01:51.020Z,0
2016-09-22T00:02:51.015Z,0
2016-09-22T00:03:50.999Z,0
2016-09-22T00:04:51.005Z,0
2016-09-22T00:05:51.039Z,0
2016-09-22T00:06:51.036Z,0
2016-09-22T00:07:50.995Z,0
2016-09-22T00:08:50.993Z,0
2016-09-22T00:09:51.033Z,0
2016-09-22T00:10:51.023Z,0
2016-09-22T00:11:51.039Z,0
2016-09-22T00:12:51.039Z,0
2016-09-22T00:13:50.998Z,0
2016-09-22T00:14:50.990Z,0
2016-09-22T00:15:51.025Z,0
2016-09-22T00:16:51.032Z,0
2016-09-22T00:17:51.012Z,0
2016-09-22T00:18:51.028Z,0
2016-09-22T00:19:51.025Z,0
2016-09-22T00:20:51.045Z,0
2016-09-22T00:21:51.017Z,0
2016-09-22T00:22:51.012Z,0
2016-09-22T00:23:51.025Z,0
2016-09-22T00:24:51.014Z,0
2016-09-22T00:25:51.020Z,0
2016-09-22T00:26:51.029Z,0
2016-09-22T00:27:51.048Z,0
2016-09-22T00:28:51.051Z,0
2016-09-22T00:29:51.057Z,0
2016-09-22T00:30:51.091Z,0
2016-09-22T00:31:51.046Z,0
2016-09-22T00:32:51.043Z,0
2016-09-22T00:33:51.064Z,0
2016-09-22T00:34:51.012Z,0
2016-09-22T00:35:51.054Z,0
2016-09-22T00:36:51.000Z,0
2016-09-22T00:37:51.036Z,0
2016-09-22T00:38:51.038Z,0
2016-09-22T00:39:51.060Z,0
2016-09-22T00:40:51.068Z,0
2016-09-22T00:41:51.016Z,0
2016-09-22T00:42:51.076Z,0
2016-09-22T00:43:51.047Z,0
2016-09-22T00:44:51.046Z,0
2016-09-22T00:45:51.054Z,0
2016-09-22T00:46:51.062Z,0
2016-09-22T00:47:51.083Z,0
2016-09-22T00:49:02.642Z,0
2016-09-22T00:50:04.137Z,0
2016-09-22T00:50:56.541Z,0
2016-09-22T00:52:02.222Z,0
2016-09-22T00:53:03.907Z,0
2016-09-22T00:54:03.464Z,0
2016-09-22T00:55:04.092Z,0
2016-09-22T00:56:03.605Z,0
2016-09-22T00:57:04.236Z,0
2016-09-22T00:58:04.588Z,0
2016-09-22T00:59:03.465Z,0
2016-09-22T01:00:02.951Z,0
2016-09-22T01:01:02.969Z,0
2016-09-22T01:02:03.054Z,0
2016-09-22T01:03:05.678Z,0
2016-09-22T01:04:04.745Z,0
2016-09-22T01:05:02.015Z,0
2016-09-22T01:05:51.028Z,0
2016-09-22T01:06:51.036Z,0
2016-09-22T01:07:51.090Z,0
2016-09-22T01:08:51.063Z,0
2016-09-22T01:09:51.030Z,0
2016-09-22T01:10:51.068Z,0
2016-09-22T01:11:51.039Z,0
2016-09-22T01:12:51.093Z,0
2016-09-22T01:13:51.051Z,0
2016-09-22T01:14:51.058Z,0
2016-09-22T01:15:51.063Z,0
2016-09-22T01:16:51.071Z,0
2016-09-22T01:17:51.085Z,0
2016-09-22T01:18:51.071Z,0
2016-09-22T01:19:51.083Z,0
2016-09-22T01:20:51.100Z,0
2016-09-22T01:21:51.061Z,0
2016-09-22T01:22:51.122Z,0
2016-09-22T01:23:51.109Z,0
2016-09-22T01:24:51.104Z,0
2016-09-22T01:25:51.065Z,0
2016-09-22T01:26:51.063Z,0
2016-09-22T01:27:51.087Z,0
2016-09-22T01:28:51.071Z,0
2016-09-22T01:29:51.070Z,0
2016-09-22T01:30:51.055Z,0
2016-09-22T01:31:51.060Z,0
2016-09-22T01:32:51.096Z,0
2016-09-22T01:33:51.083Z,0
2016-09-22T01:34:51.078Z,0
2016-09-22T01:35:51.085Z,0
2016-09-22T01:36:51.121Z,0
2016-09-22T01:37:51.092Z,0
2016-09-22T01:38:51.075Z,0
2016-09-22T01:39:51.106Z,0
2016-09-22T01:40:51.090Z,0
2016-09-22T01:41:51.093Z,0
2016-09-22T01:42:51.125Z,0
2016-09-22T01:43:51.112Z,0
2016-09-22T01:44:51.105Z,0
2016-09-22T01:45:51.091Z,0
2016-09-22T01:46:51.086Z,0
2016-09-22T01:47:51.113Z,0
2016-09-22T01:48:51.159Z,0
2016-09-22T01:49:51.091Z,0
2016-09-22T01:50:51.124Z,0
2016-09-22T01:51:51.076Z,0
2016-09-22T01:52:51.121Z,0
2016-09-22T01:53:51.130Z,0
2016-09-22T01:54:51.104Z,0
2016-09-22T01:55:51.111Z,0
2016-09-22T01:56:51.105Z,0
2016-09-22T01:57:51.108Z,0
2016-09-22T01:58:51.104Z,0
2016-09-22T01:59:51.135Z,0
2016-09-22T02:00:51.118Z,0
2016-09-22T02:01:51.066Z,0
2016-09-22T02:02:51.102Z,0
2016-09-22T02:03:51.110Z,0
2016-09-22T02:04:51.104Z,0
2016-09-22T02:05:51.093Z,0
2016-09-22T02:06:51.116Z,0
2016-09-22T02:07:51.104Z,0
2016-09-22T02:08:51.113Z,0
2016-09-22T02:09:51.097Z,0
2016-09-22T02:10:51.109Z,0
2016-09-22T02:11:51.092Z,0
2016-09-22T02:12:51.085Z,0
2016-09-22T02:13:51.121Z,0
2016-09-22T02:14:51.163Z,0
2016-09-22T02:15:51.119Z,0
2016-09-22T02:16:51.110Z,0
2016-09-22T02:17:51.125Z,0
2016-09-22T02:18:51.137Z,0
2016-09-22T02:19:51.116Z,0
2016-09-22T02:20:51.096Z,0
2016-09-22T02:21:51.191Z,0
2016-09-22T02:22:51.137Z,0
2016-09-22T02:23:51.116Z,0
2016-09-22T02:24:51.116Z,0
2016-09-22T02:25:51.100Z,0
2016-09-22T02:26:51.141Z,0
2016-09-22T02:27:51.112Z,0
2016-09-22T02:28:51.125Z,0
2016-09-22T02:29:51.121Z,0
2016-09-22T02:30:51.132Z,0
2016-09-22T02:31:51.145Z,0
2016-09-22T02:32:51.133Z,0
2016-09-22T02:33:51.128Z,0
2016-09-22T02:34:51.132Z,0
2016-09-22T02:35:51.105Z,0
2016-09-22T02:36:51.114Z,0
2016-09-22T02:37:51.100Z,0
2016-09-22T02:38:51.088Z,0
2016-09-22T02:39:51.119Z,0
2016-09-22T02:40:51.118Z,0
2016-09-22T02:41:51.148Z,0
2016-09-22T02:42:51.138Z,0
2016-09-22T02:43:51.122Z,0
2016-09-22T02:44:51.143Z,0
2016-09-22T02:45:51.193Z,0
2016-09-22T02:46:51.179Z,0
2016-09-22T02:47:51.183Z,0
2016-09-22T02:48:51.151Z,0
2016-09-22T02:49:51.151Z,0
2016-09-22T02:50:51.145Z,0
2016-09-22T02:51:51.125Z,0
2016-09-22T02:52:51.171Z,0
2016-09-22T02:53:51.107Z,0
2016-09-22T02:54:51.130Z,0
2016-09-22T02:55:51.133Z,0
2016-09-22T02:56:51.093Z,0
2016-09-22T02:57:51.154Z,0
2016-09-22T02:58:51.137Z,0
2016-09-22T02:59:51.132Z,0
2016-09-22T03:00:51.126Z,0
2016-09-22T03:01:51.112Z,0
2016-09-22T03:02:51.151Z,0
2016-09-22T03:03:51.109Z,0
2016-09-22T03:04:51.136Z,0
2016-09-22T03:05:51.097Z,0
2016-09-22T03:06:51.160Z,0
2016-09-22T03:07:51.139Z,0
2016-09-22T03:08:51.144Z,0
2016-09-22T03:09:51.136Z,0
2016-09-22T03:10:51.111Z,0
2016-09-22T03:11:51.185Z,0
2016-09-22T03:12:51.157Z,0
2016-09-22T03:13:51.164Z,0
2016-09-22T03:14:51.173Z,0
2016-09-22T03:15:51.194Z,0
2016-09-22T03:16:51.166Z,0
2016-09-22T03:17:51.166Z,0
2016-09-22T03:18:51.151Z,0
2016-09-22T03:19:51.122Z,0
2016-09-22T03:20:51.150Z,0
2016-09-22T03:21:51.170Z,0
2016-09-22T03:22:51.137Z,0
2016-09-22T03:23:51.146Z,0
2016-09-22T03:24:51.154Z,0
2016-09-22T03:25:51.145Z,0
2016-09-22T03:26:51.144Z,0
2016-09-22T03:27:51.178Z,0
2016-09-22T03:28:51.147Z,0
2016-09-22T03:29:51.188Z,0
2016-09-22T03:30:51.174Z,0
2016-09-22T03:31:51.145Z,0
2016-09-22T03:32:51.173Z,0
2016-09-22T03:33:51.202Z,0
2016-09-22T03:34:51.169Z,0
2016-09-22T03:35:51.186Z,0
2016-09-22T03:36:51.195Z,0
2016-09-22T03:37:51.163Z,0
2016-09-22T03:38:51.160Z,0
2016-09-22T03:39:51.140Z,0
2016-09-22T03:40:51.153Z,0
2016-09-22T03:41:51.180Z,0
2016-09-22T03:42:51.168Z,0
2016-09-22T03:43:51.197Z,0
2016-09-22T03:44:51.208Z,0
2016-09-22T03:45:51.208Z,0
2016-09-22T03:46:51.162Z,0
2016-09-22T03:47:51.184Z,0
2016-09-22T03:48:51.178Z,0
2016-09-22T03:49:51.196Z,0
2016-09-22T03:50:51.219Z,0
2016-09-22T03:51:51.219Z,0
2016-09-22T03:52:51.211Z,0
2016-09-22T03:53:51.173Z,0
2016-09-22T03:54:51.187Z,0
2016-09-22T03:55:51.229Z,0
2016-09-22T03:56:51.182Z,0
2016-09-22T03:57:51.205Z,0
2016-09-22T03:58:51.221Z,0
2016-09-22T03:59:51.186Z,0
2016-09-22T04:00:51.189Z,0
2016-09-22T04:01:51.212Z,0
2016-09-22T04:02:51.223Z,0
2016-09-22T04:03:51.232Z,0
2016-09-22T04:04:51.189Z,0
2016-09-22T04:05:51.163Z,0
2016-09-22T04:06:51.199Z,0
2016-09-22T04:07:51.189Z,0
2016-09-22T04:08:51.218Z,0
2016-09-22T04:09:51.201Z,0
2016-09-22T04:10:51.226Z,0
2016-09-22T04:11:51.220Z,0
2016-09-22T04:12:51.177Z,0
2016-09-22T04:13:51.223Z,0
2016-09-22T04:14:51.213Z,0
2016-09-22T04:15:51.200Z,0
2016-09-22T04:16:51.172Z,0
2016-09-22T04:17:51.188Z,0
2016-09-22T04:18:51.226Z,0
2016-09-22T04:19:51.196Z,0
2016-09-22T04:20:51.239Z,0
2016-09-22T04:21:51.211Z,0
2016-09-22T04:22:52.118Z,0
2016-09-22T04:23:51.217Z,0
2016-09-22T04:24:51.212Z,0
2016-09-22T04:25:51.251Z,0
2016-09-22T04:26:51.231Z,0
2016-09-22T04:27:51.242Z,0
2016-09-22T04:28:51.260Z,0
2016-09-22T04:29:51.218Z,0
2016-09-22T04:30:51.253Z,0
2016-09-22T04:31:51.259Z,0
2016-09-22T04:32:51.246Z,0
2016-09-22T04:33:51.314Z,0
2016-09-22T04:34:51.302Z,0
2016-09-22T04:35:51.231Z,0
2016-09-22T04:36:51.208Z,0
2016-09-22T04:37:51.203Z,0
2016-09-22T04:38:51.301Z,0
2016-09-22T04:39:51.240Z,0
2016-09-22T04:40:51.217Z,0
2016-09-22T04:41:51.279Z,0
2016-09-22T04:42:51.245Z,0
2016-09-22T04:43:51.340Z,0
2016-09-22T04:44:51.253Z,0
2016-09-22T04:45:51.216Z,0
2016-09-22T04:46:51.252Z,0
2016-09-22T04:47:51.185Z,0
2016-09-22T04:48:51.227Z,0
2016-09-22T04:49:51.261Z,0
2016-09-22T04:50:51.248Z,0
2016-09-22T04:51:51.268Z,0
2016-09-22T04:52:51.202Z,0
2016-09-22T04:53:51.208Z,0
2016-09-22T04:54:51.244Z,0
2016-09-22T04:55:51.248Z,0
2016-09-22T04:56:51.264Z,0
2016-09-22T04:57:51.269Z,0
2016-09-22T04:58:51.226Z,0
2016-09-22T04:59:51.321Z,0
2016-09-22T05:00:51.235Z,0
2016-09-22T05:01:51.266Z,0
2016-09-22T05:02:51.202Z,0
2016-09-22T05:03:51.222Z,0
2016-09-22T05:04:51.250Z,0
2016-09-22T05:05:51.196Z,0
2016-09-22T05:06:51.248Z,0
2016-09-22T05:07:51.199Z,0
2016-09-22T05:08:51.229Z,0
2016-09-22T05:09:51.228Z,0
2016-09-22T05:10:51.222Z,0
2016-09-22T05:11:51.247Z,0
2016-09-22T05:12:51.222Z,5
2016-09-22T05:13:51.253Z,5
2016-09-22T05:14:51.259Z,5
2016-09-22T05:15:52.533Z,5
2016-09-22T05:16:51.244Z,5
2016-09-22T05:17:51.248Z,5
2016-09-22T05:18:51.283Z,5
2016-09-22T05:19:51.290Z,5
2016-09-22T05:20:51.241Z,5
2016-09-22T05:21:51.252Z,5
2016-09-22T05:22:51.254Z,5
2016-09-22T05:23:51.292Z,10
2016-09-22T05:24:51.269Z,10
2016-09-22T05:25:51.236Z,10
2016-09-22T05:26:51.291Z,10
2016-09-22T05:27:51.232Z,10
2016-09-22T05:28:51.243Z,15
2016-09-22T05:29:51.245Z,15
2016-09-22T05:30:51.312Z,15
2016-09-22T05:31:51.277Z,15
2016-09-22T05:32:51.316Z,15
2016-09-22T05:33:51.288Z,20
2016-09-22T05:34:51.304Z,20
2016-09-22T05:35:51.317Z,20
2016-09-22T05:36:51.312Z,20
2016-09-22T05:37:51.313Z,20
2016-09-22T05:38:51.300Z,25
2016-09-22T05:39:51.294Z,25
2016-09-22T05:40:51.307Z,25
2016-09-22T05:41:51.287Z,25
2016-09-22T05:42:51.281Z,25
2016-09-22T05:43:51.358Z,30
2016-09-22T05:44:51.333Z,30
2016-09-22T05:45:51.325Z,30
2016-09-22T05:46:51.305Z,30
2016-09-22T05:47:51.273Z,30
2016-09-22T05:48:51.288Z,30
2016-09-22T05:49:51.266Z,30
2016-09-22T05:50:52.197Z,30
2016-09-22T05:51:51.344Z,35
2016-09-22T05:52:51.298Z,35
2016-09-22T05:53:51.239Z,35
2016-09-22T05:54:51.285Z,35
2016-09-22T05:55:51.307Z,35
2016-09-22T05:56:51.304Z,35
2016-09-22T05:57:51.272Z,35
2016-09-22T05:58:51.255Z,35
2016-09-22T05:59:51.257Z,35
2016-09-22T06:00:51.269Z,35
2016-09-22T06:01:52.223Z,35
2016-09-22T06:02:51.291Z,35
2016-09-22T06:03:51.302Z,35
2016-09-22T06:04:51.295Z,35
2016-09-22T06:05:51.301Z,40
2016-09-22T06:06:51.311Z,40
2016-09-22T06:07:51.319Z,40
2016-09-22T06:08:51.282Z,40
2016-09-22T06:09:51.289Z,40
2016-09-22T06:10:51.298Z,45
2016-09-22T06:11:51.289Z,45
2016-09-22T06:12:51.337Z,45
2016-09-22T06:13:51.296Z,45
2016-09-22T06:14:51.274Z,50
2016-09-22T06:15:51.322Z,50
2016-09-22T06:16:51.308Z,50
2016-09-22T06:17:51.266Z,55
2016-09-22T06:18:51.254Z,50
2016-09-22T06:19:51.293Z,50
2016-09-22T06:20:51.253Z,50
2016-09-22T06:21:51.322Z,50
2016-09-22T06:22:51.297Z,50
2016-09-22T06:23:51.287Z,55
2016-09-22T06:24:51.312Z,55
2016-09-22T06:25:51.277Z,55
2016-09-22T06:26:51.316Z,55
2016-09-22T06:27:51.272Z,55
2016-09-22T06:28:51.334Z,60
2016-09-22T06:29:51.343Z,60
2016-09-22T06:30:51.408Z,60
2016-09-22T06:31:51.326Z,60
2016-09-22T06:32:51.331Z,60
2016-09-22T06:33:51.374Z,65
2016-09-22T06:34:51.346Z,70
2016-09-22T06:35:51.267Z,70
2016-09-22T06:36:51.302Z,75
2016-09-22T06:37:51.351Z,80
2016-09-22T06:38:51.317Z,80
2016-09-22T06:39:51.350Z,75
2016-09-22T06:40:51.317Z,80
2016-09-22T06:41:51.289Z,80
2016-09-22T06:42:51.328Z,85
2016-09-22T06:43:51.376Z,90
2016-09-22T06:44:51.384Z,95
2016-09-22T06:45:51.344Z,95
2016-09-22T06:46:51.368Z,100
2016-09-22T06:47:51.401Z,100
2016-09-22T06:48:51.349Z,100
2016-09-22T06:49:51.359Z,100
2016-09-22T06:50:51.365Z,100
2016-09-22T06:51:51.333Z,100
2016-09-22T06:52:51.379Z,100
2016-09-22T06:53:51.347Z,100
2016-09-22T06:54:51.301Z,105
2016-09-22T06:55:51.463Z,105
2016-09-22T06:56:51.340Z,105
2016-09-22T06:57:51.314Z,105
2016-09-22T06:58:51.379Z,105
2016-09-22T06:59:51.330Z,105
2016-09-22T07:00:51.334Z,105
2016-09-22T07:01:51.328Z,105
2016-09-22T07:02:51.349Z,105
2016-09-22T07:03:51.350Z,105
2016-09-22T07:04:51.310Z,105
2016-09-22T07:05:51.345Z,105
2016-09-22T07:06:51.347Z,105
2016-09-22T07:07:51.365Z,110
2016-09-22T07:08:51.337Z,110
2016-09-22T07:09:51.344Z,110
2016-09-22T07:10:51.328Z,110
2016-09-22T07:11:51.349Z,110
2016-09-22T07:12:51.985Z,110
2016-09-22T07:13:52.070Z,110
2016-09-22T07:14:51.356Z,110
2016-09-22T07:15:51.363Z,115
2016-09-22T07:16:51.350Z,115
2016-09-22T07:17:51.328Z,115
2016-09-22T07:18:51.340Z,115
2016-09-22T07:19:51.379Z,115
2016-09-22T07:20:51.391Z,115
2016-09-22T07:21:51.366Z,115
2016-09-22T07:22:51.414Z,115
2016-09-22T07:23:51.364Z,120
2016-09-22T07:24:51.347Z,120
2016-09-22T07:25:51.924Z,120
2016-09-22T07:26:51.379Z,120
2016-09-22T07:27:51.308Z,120
2016-09-22T07:28:51.362Z,120
2016-09-22T07:29:51.304Z,120
2016-09-22T07:30:51.387Z,120
2016-09-22T07:31:51.365Z,125
2016-09-22T07:32:51.356Z,125
2016-09-22T07:33:51.351Z,125
2016-09-22T07:34:51.345Z,125
2016-09-22T07:35:51.347Z,125
2016-09-22T07:36:51.323Z,125
2016-09-22T07:37:51.357Z,125
2016-09-22T07:38:51.355Z,130
2016-09-22T07:39:51.343Z,135
2016-09-22T07:40:51.337Z,135
2016-09-22T07:41:51.372Z,140
2016-09-22T07:42:51.366Z,145
2016-09-22T07:43:51.373Z,150
2016-09-22T07:44:51.786Z,155
2016-09-22T07:45:51.355Z,155
2016-09-22T07:46:51.378Z,145
2016-09-22T07:47:51.368Z,140
2016-09-22T07:48:51.362Z,135
2016-09-22T07:49:51.383Z,130
2016-09-22T07:50:51.385Z,130
2016-09-22T07:51:51.375Z,130
2016-09-22T07:52:51.373Z,130
2016-09-22T07:53:51.367Z,130
2016-09-22T07:54:51.404Z,130
2016-09-22T07:55:51.389Z,130
2016-09-22T07:56:51.386Z,130
2016-09-22T07:57:51.364Z,135
2016-09-22T07:58:51.385Z,135
2016-09-22T07:59:51.392Z,135
2016-09-22T08:00:51.370Z,135
2016-09-22T08:01:51.364Z,135
2016-09-22T08:02:51.369Z,135
2016-09-22T08:03:51.405Z,135
2016-09-22T08:04:51.388Z,135
2016-09-22T08:05:51.476Z,135
2016-09-22T08:06:51.372Z,135
2016-09-22T08:07:51.388Z,135
2016-09-22T08:08:51.364Z,135
2016-09-22T08:09:51.387Z,140
2016-09-22T08:10:51.379Z,140
2016-09-22T08:11:51.375Z,140
2016-09-22T08:12:51.441Z,140
2016-09-22T08:13:51.396Z,140
2016-09-22T08:14:51.446Z,140
2016-09-22T08:15:51.439Z,145
2016-09-22T08:16:51.397Z,145
2016-09-22T08:17:51.444Z,145
2016-09-22T08:18:51.429Z,145
2016-09-22T08:19:51.408Z,145
2016-09-22T08:20:51.409Z,145
2016-09-22T08:21:51.404Z,145
2016-09-22T08:22:51.414Z,145
2016-09-22T08:23:51.385Z,145
2016-09-22T08:24:51.407Z,145
2016-09-22T08:25:51.411Z,145
2016-09-22T08:26:51.377Z,145
2016-09-22T08:27:51.412Z,145
2016-09-22T08:28:51.416Z,145
2016-09-22T08:29:51.484Z,145
2016-09-22T08:30:51.394Z,145
2016-09-22T08:31:51.393Z,150
2016-09-22T08:32:51.407Z,150
2016-09-22T08:33:51.387Z,145
2016-09-22T08:34:51.414Z,145
2016-09-22T08:35:51.412Z,150
2016-09-22T08:36:51.382Z,150
2016-09-22T08:37:51.390Z,150
2016-09-22T08:38:51.394Z,150
2016-09-22T08:39:51.418Z,150
2016-09-22T08:40:51.422Z,150
2016-09-22T08:41:51.371Z,150
2016-09-22T08:42:51.418Z,150
2016-09-22T08:43:51.424Z,150
2016-09-22T08:44:51.433Z,150
2016-09-22T08:45:51.400Z,150
2016-09-22T08:46:51.409Z,150
2016-09-22T08:47:51.385Z,155
2016-09-22T08:48:51.455Z,160
2016-09-22T08:49:51.438Z,165
2016-09-22T08:50:51.383Z,170
2016-09-22T08:51:51.394Z,170
2016-09-22T08:52:51.545Z,170
2016-09-22T08:53:51.420Z,170
2016-09-22T08:54:51.513Z,170
2016-09-22T08:55:51.465Z,170
2016-09-22T08:56:51.488Z,170
2016-09-22T08:57:51.463Z,175
2016-09-22T08:58:51.441Z,170
2016-09-22T08:59:51.494Z,175
2016-09-22T09:00:51.423Z,170
2016-09-22T09:01:51.411Z,175
2016-09-22T09:02:51.414Z,175
2016-09-22T09:03:51.436Z,175
2016-09-22T09:04:51.465Z,175
2016-09-22T09:05:51.445Z,175
2016-09-22T09:06:51.485Z,170
2016-09-22T09:07:51.433Z,170
2016-09-22T09:08:51.442Z,165
2016-09-22T09:09:51.430Z,160
2016-09-22T09:10:51.505Z,155
2016-09-22T09:11:51.423Z,155
2016-09-22T09:12:51.422Z,150
2016-09-22T09:13:51.529Z,155
2016-09-22T09:14:51.411Z,155
2016-09-22T09:15:51.420Z,160
2016-09-22T09:16:51.468Z,160
2016-09-22T09:17:51.443Z,165
2016-09-22T09:18:51.458Z,165
2016-09-22T09:19:51.446Z,165
2016-09-22T09:20:51.442Z,165
2016-09-22T09:21:51.465Z,165
2016-09-22T09:22:51.481Z,170
2016-09-22T09:23:51.455Z,170
2016-09-22T09:24:51.487Z,170
2016-09-22T09:25:51.489Z,170
2016-09-22T09:26:51.458Z,170
2016-09-22T09:27:51.498Z,170
2016-09-22T09:28:51.531Z,170
2016-09-22T09:29:51.452Z,175
2016-09-22T09:30:51.489Z,170
2016-09-22T09:31:51.428Z,170
2016-09-22T09:32:51.491Z,170
2016-09-22T09:33:51.470Z,170
2016-09-22T09:34:51.461Z,170
2016-09-22T09:35:52.115Z,165
2016-09-22T09:36:51.460Z,160
2016-09-22T09:37:51.617Z,165
2016-09-22T09:38:51.474Z,165
2016-09-22T09:39:51.465Z,165
2016-09-22T09:40:51.487Z,160
2016-09-22T09:41:51.540Z,165
2016-09-22T09:42:51.486Z,165
2016-09-22T09:43:51.450Z,165
2016-09-22T09:44:51.479Z,170
2016-09-22T09:45:51.495Z,175
2016-09-22T09:46:51.543Z,175
2016-09-22T09:47:51.451Z,180
2016-09-22T09:48:51.454Z,180
2016-09-22T09:49:51.479Z,180
2016-09-22T09:50:51.495Z,175
2016-09-22T09:51:51.472Z,175
2016-09-22T09:52:51.489Z,175
2016-09-22T09:53:51.481Z,175
2016-09-22T09:54:51.445Z,175
2016-09-22T09:55:51.464Z,175
2016-09-22T09:56:51.435Z,175
2016-09-22T09:57:51.470Z,175
2016-09-22T09:58:51.525Z,170
2016-09-22T09:59:51.510Z,170
2016-09-22T10:00:51.494Z,170
2016-09-22T10:01:51.488Z,170
2016-09-22T10:02:51.501Z,170
2016-09-22T10:03:51.492Z,170
2016-09-22T10:04:51.520Z,170
2016-09-22T10:05:51.519Z,170
2016-09-22T10:06:51.460Z,170
2016-09-22T10:07:51.526Z,170
2016-09-22T10:08:51.493Z,175
2016-09-22T10:09:51.510Z,175
2016-09-22T10:10:51.536Z,170
2016-09-22T10:11:51.510Z,170
2016-09-22T10:12:51.550Z,170
2016-09-22T10:13:51.468Z,170
2016-09-22T10:14:51.505Z,170
2016-09-22T10:15:51.530Z,170
2016-09-22T10:16:51.518Z,170
2016-09-22T10:17:51.495Z,170
2016-09-22T10:18:51.514Z,170
2016-09-22T10:19:51.507Z,170
2016-09-22T10:20:51.496Z,170
2016-09-22T10:21:51.523Z,175
2016-09-22T10:22:51.523Z,170
2016-09-22T10:23:51.604Z,170
2016-09-22T10:24:51.580Z,175
2016-09-22T10:25:51.501Z,175
2016-09-22T10:26:51.519Z,175
2016-09-22T10:27:51.515Z,180
2016-09-22T10:28:51.517Z,180
2016-09-22T10:29:51.508Z,180
2016-09-22T10:30:51.514Z,185
2016-09-22T10:31:51.507Z,185
2016-09-22T10:32:51.511Z,185
2016-09-22T10:33:51.523Z,185
2016-09-22T10:34:51.531Z,185
2016-09-22T10:35:51.505Z,185
2016-09-22T10:36:51.494Z,190
2016-09-22T10:37:51.604Z,190
2016-09-22T10:38:51.539Z,190
2016-09-22T10:39:51.613Z,190
2016-09-22T10:40:51.531Z,190
2016-09-22T10:41:51.528Z,190
2016-09-22T10:42:51.659Z,190
2016-09-22T10:43:51.511Z,195
2016-09-22T10:44:51.554Z,190
2016-09-22T10:45:51.529Z,190
2016-09-22T10:46:51.523Z,190
2016-09-22T10:47:51.572Z,190
2016-09-22T10:48:51.536Z,190
2016-09-22T10:49:51.524Z,190
2016-09-22T10:50:51.553Z,190
2016-09-22T10:51:51.503Z,190
2016-09-22T10:52:51.569Z,190
2016-09-22T10:53:51.534Z,190
2016-09-22T10:54:51.502Z,190
2016-09-22T10:55:51.508Z,195
2016-09-22T10:56:51.591Z,200
2016-09-22T10:57:51.535Z,200
2016-09-22T10:58:51.556Z,210
2016-09-22T10:59:51.546Z,215
2016-09-22T11:00:51.506Z,210
2016-09-22T11:01:51.544Z,215
2016-09-22T11:02:51.519Z,215
2016-09-22T11:03:51.556Z,220
2016-09-22T11:04:51.569Z,215
2016-09-22T11:05:51.515Z,220
2016-09-22T11:06:51.562Z,220
2016-09-22T11:07:51.549Z,220
2016-09-22T11:08:51.532Z,220
2016-09-22T11:09:51.569Z,215
2016-09-22T11:10:51.530Z,215
2016-09-22T11:11:51.539Z,220
2016-09-22T11:12:51.560Z,215
2016-09-22T11:13:51.567Z,210
2016-09-22T11:14:51.572Z,210
2016-09-22T11:15:51.575Z,205
2016-09-22T11:16:51.588Z,205
2016-09-22T11:17:51.572Z,205
2016-09-22T11:18:51.551Z,205
2016-09-22T11:19:51.569Z,205
2016-09-22T11:20:51.579Z,205
2016-09-22T11:21:51.559Z,205
2016-09-22T11:22:51.547Z,200
2016-09-22T11:23:51.585Z,205
2016-09-22T11:24:51.578Z,205
2016-09-22T11:25:51.567Z,200
2016-09-22T11:26:51.591Z,205
2016-09-22T11:27:51.903Z,200
2016-09-22T11:28:51.831Z,200
2016-09-22T11:29:51.592Z,200
2016-09-22T11:30:51.572Z,200
2016-09-22T11:31:51.561Z,200
2016-09-22T11:32:51.598Z,200
2016-09-22T11:33:51.559Z,200
2016-09-22T11:34:51.625Z,200
2016-09-22T11:35:52.100Z,200
2016-09-22T11:36:52.489Z,205
2016-09-22T11:37:52.101Z,205
2016-09-22T11:38:52.465Z,205
2016-09-22T11:39:51.726Z,205
2016-09-22T11:40:52.279Z,200
2016-09-22T11:41:52.260Z,195
2016-09-22T11:42:51.627Z,200
2016-09-22T11:43:52.280Z,200
2016-09-22T11:44:52.554Z,200
2016-09-22T11:45:52.082Z,200
2016-09-22T11:46:52.127Z,200
2016-09-22T11:47:52.213Z,200
2016-09-22T11:48:51.875Z,200
2016-09-22T11:49:51.570Z,195
2016-09-22T11:50:51.624Z,195
2016-09-22T11:51:51.596Z,195
2016-09-22T11:52:51.604Z,200
2016-09-22T11:53:51.579Z,200
2016-09-22T11:54:52.008Z,200
2016-09-22T11:55:53.527Z,205
2016-09-22T11:56:51.599Z,210
2016-09-22T11:57:51.642Z,210
2016-09-22T11:58:55.062Z,210
2016-09-22T11:59:51.937Z,210
2016-09-22T12:00:51.620Z,205
2016-09-22T12:01:51.633Z,200
2016-09-22T12:02:52.572Z,195
2016-09-22T12:03:51.614Z,195
2016-09-22T12:04:51.611Z,190
2016-09-22T12:05:51.611Z,185
2016-09-22T12:06:51.619Z,185
2016-09-22T12:07:51.748Z,180
2016-09-22T12:08:51.619Z,180
2016-09-22T12:09:51.594Z,175
2016-09-22T12:10:51.630Z,175
2016-09-22T12:11:51.615Z,175
2016-09-22T12:12:51.638Z,170
2016-09-22T12:13:51.618Z,170
2016-09-22T12:14:51.610Z,165
2016-09-22T12:15:51.621Z,165
2016-09-22T12:16:51.655Z,170
2016-09-22T12:17:51.621Z,170
2016-09-22T12:18:51.594Z,175
2016-09-22T12:19:51.623Z,175
2016-09-22T12:20:51.646Z,175
2016-09-22T12:21:51.630Z,180
2016-09-22T12:22:51.602Z,185
2016-09-22T12:23:51.649Z,185
2016-09-22T12:24:51.624Z,185
2016-09-22T12:25:51.637Z,190
2016-09-22T12:26:51.714Z,190
2016-09-22T12:27:51.650Z,190
2016-09-22T12:28:51.675Z,195
2016-09-22T12:29:51.653Z,200
2016-09-22T12:30:51.649Z,205
2016-09-22T12:31:51.643Z,205
2016-09-22T12:32:51.660Z,210
2016-09-22T12:33:51.641Z,205
2016-09-22T12:34:51.660Z,205
2016-09-22T12:35:51.679Z,200
2016-09-22T12:36:51.756Z,190
2016-09-22T12:37:51.672Z,190
2016-09-22T12:38:51.686Z,185
2016-09-22T12:39:51.681Z,185
2016-09-22T12:40:51.670Z,180
2016-09-22T12:41:51.680Z,175
2016-09-22T12:42:51.673Z,175
2016-09-22T12:43:51.678Z,170
2016-09-22T12:44:51.685Z,170
2016-09-22T12:45:51.686Z,170
2016-09-22T12:46:51.681Z,175
2016-09-22T12:47:51.713Z,175
2016-09-22T12:48:51.741Z,175
2016-09-22T12:49:51.659Z,180
2016-09-22T12:50:52.385Z,180
2016-09-22T12:51:51.684Z,185
2016-09-22T12:52:51.689Z,190
2016-09-22T12:53:51.652Z,190
2016-09-22T12:54:51.680Z,190
2016-09-22T12:55:51.661Z,195
2016-09-22T12:56:51.651Z,195
2016-09-22T12:57:51.657Z,195
2016-09-22T12:58:51.664Z,195
2016-09-22T12:59:51.649Z,200
2016-09-22T13:00:51.716Z,205
2016-09-22T13:01:51.723Z,205
2016-09-22T13:02:51.703Z,205
2016-09-22T13:03:51.675Z,210
2016-09-22T13:04:51.705Z,210
2016-09-22T13:05:52.153Z,210
2016-09-22T13:06:52.938Z,210
2016-09-22T13:07:52.545Z,210
2016-09-22T13:08:51.729Z,205
2016-09-22T13:09:51.756Z,205
2016-09-22T13:10:51.744Z,205
2016-09-22T13:11:51.696Z,205
2016-09-22T13:12:51.734Z,195
2016-09-22T13:13:51.745Z,195
2016-09-22T13:14:51.669Z,190
2016-09-22T13:15:51.695Z,185
2016-09-22T13:16:51.671Z,180
2016-09-22T13:17:51.720Z,180
2016-09-22T13:18:51.755Z,180
2016-09-22T13:19:51.748Z,180
2016-09-22T13:20:51.809Z,180
2016-09-22T13:21:51.708Z,185
2016-09-22T13:22:51.774Z,190
2016-09-22T13:23:51.715Z,190
2016-09-22T13:24:51.704Z,195
2016-09-22T13:25:51.721Z,195
2016-09-22T13:26:51.704Z,200
2016-09-22T13:27:51.699Z,200
2016-09-22T13:28:51.705Z,200
2016-09-22T13:29:51.746Z,200
2016-09-22T13:30:51.680Z,195
2016-09-22T13:31:51.812Z,195
2016-09-22T13:32:51.722Z,190
2016-09-22T13:33:51.729Z,190
2016-09-22T13:34:51.752Z,185
2016-09-22T13:35:51.685Z,180
2016-09-22T13:36:51.721Z,180
2016-09-22T13:37:51.757Z,175
2016-09-22T13:38:51.809Z,175
2016-09-22T13:39:51.772Z,170
2016-09-22T13:40:51.772Z,165
2016-09-22T13:41:51.764Z,165
2016-09-22T13:42:51.781Z,165
2016-09-22T13:43:51.757Z,160
2016-09-22T13:44:51.789Z,160
2016-09-22T13:45:51.829Z,155
2016-09-22T13:46:51.783Z,155
2016-09-22T13:47:51.746Z,150
2016-09-22T13:48:51.757Z,150
2016-09-22T13:49:51.732Z,150
2016-09-22T13:50:51.719Z,155
2016-09-22T13:51:51.752Z,155
2016-09-22T13:52:51.764Z,155
2016-09-22T13:53:51.760Z,155
2016-09-22T13:54:51.759Z,155
2016-09-22T13:55:51.764Z,155
2016-09-22T13:56:51.787Z,155
2016-09-22T13:57:51.749Z,155
2016-09-22T13:58:51.786Z,160
2016-09-22T13:59:51.751Z,160
2016-09-22T14:00:51.759Z,160
2016-09-22T14:01:51.756Z,165
2016-09-22T14:02:51.811Z,160
2016-09-22T14:03:51.839Z,160
2016-09-22T14:04:51.786Z,165
2016-09-22T14:05:51.743Z,165
2016-09-22T14:06:51.852Z,170
2016-09-22T14:07:51.844Z,170
2016-09-22T14:08:51.768Z,175
2016-09-22T14:09:51.783Z,180
2016-09-22T14:10:51.768Z,185
2016-09-22T14:11:51.746Z,185